Time;durP1;ratioP1;P1;durP2;ratioP2;P2;SDS_P1;SDS_P2;PMS_P1;PMS_P2;Temp;Humidity;BMP_temperature;BMP_pressure;BME280_temperature;BME280_humidity;BME280_pressure;Samples;Min_cycle;Max_cycle;Signal;HPM_P1;HPM_P2
2022/05/28 00:02:22;;;;;;;1999.90;999.90;;;10.60;99.90;;;;;;5069843;28;20490;-78
2022/05/28 00:04:48;;;;;;;1999.90;999.90;;;10.50;99.90;;;;;;5065043;28;20043;-77
2022/05/28 00:07:13;;;;;;;1999.90;999.90;;;10.50;99.90;;;;;;5079082;28;20039;-78
2022/05/28 00:09:39;;;;;;;1999.90;999.90;;;10.50;99.90;;;;;;5062937;28;20094;-77
2022/05/28 00:12:05;;;;;;;1999.90;999.90;;;10.50;99.90;;;;;;5064613;28;20111;-79
2022/05/28 00:14:31;;;;;;;1999.90;999.90;;;10.60;99.90;;;;;;5070712;28;20070;-78
2022/05/28 00:16:56;;;;;;;1999.90;999.90;;;10.60;99.90;;;;;;5084609;28;20630;-78
2022/05/28 00:19:22;;;;;;;1999.90;999.90;;;10.60;99.90;;;;;;5055055;28;20039;-79
2022/05/28 00:21:48;;;;;;;1999.90;999.90;;;10.60;99.90;;;;;;5071007;28;20135;-78
2022/05/28 00:24:13;;;;;;;1999.90;999.90;;;10.60;99.90;;;;;;5066367;28;20052;-77
2022/05/28 00:26:41;;;;;;;1999.90;999.90;;;10.60;99.90;;;;;;5072274;28;20045;-79
2022/05/28 00:29:07;;;;;;;1999.90;999.90;;;10.70;99.90;;;;;;5068059;28;20072;-79
2022/05/28 00:31:33;;;;;;;1999.90;999.90;;;10.70;99.90;;;;;;5072705;28;20067;-78
2022/05/28 00:33:58;;;;;;;1999.90;999.90;;;10.70;99.90;;;;;;5063877;28;20032;-78
2022/05/28 00:36:24;;;;;;;1999.90;999.90;;;10.60;99.90;;;;;;5058020;28;20043;-78
2022/05/28 00:38:50;;;;;;;1999.90;999.90;;;10.70;99.90;;;;;;5064236;28;20083;-78
2022/05/28 00:41:15;;;;;;;1999.90;999.90;;;10.60;99.90;;;;;;5058586;28;20032;-79
2022/05/28 00:43:44;;;;;;;1999.90;999.90;;;10.70;99.90;;;;;;5060958;28;20513;-79
2022/05/28 00:46:22;;;;;;;1999.90;999.90;;;10.60;99.90;;;;;;5080426;28;20345;-78
2022/05/28 00:48:53;;;;;;;1999.90;999.90;;;10.60;99.90;;;;;;5075199;28;20105;-80
2022/05/28 00:51:28;;;;;;;1999.90;999.90;;;10.70;99.90;;;;;;5074423;28;20036;-79
2022/05/28 00:53:58;;;;;;;1999.90;999.90;;;10.60;99.90;;;;;;5084517;28;20054;-80
2022/05/28 00:56:24;;;;;;;1999.90;999.90;;;10.60;99.90;;;;;;5085062;28;20143;-80
2022/05/28 00:58:50;;;;;;;1999.90;999.90;;;10.50;99.90;;;;;;5072666;28;20468;-78
2022/05/28 01:01:21;;;;;;;1999.90;999.90;;;10.40;99.90;;;;;;5062414;28;20102;-79
2022/05/28 01:04:15;;;;;;;1999.90;999.90;;;10.30;99.90;;;;;;5077900;28;20044;-78
2022/05/28 01:06:43;;;;;;;;;;;10.30;99.90;;;;;;5053189;28;20035;-79
2022/05/28 01:09:24;;;;;;;1999.90;999.90;;;10.20;99.90;;;;;;5070106;28;19924;-78
2022/05/28 01:12:00;;;;;;;1999.90;999.90;;;10.20;99.90;;;;;;5059106;28;20135;-79
2022/05/28 01:14:42;;;;;;;1999.90;999.90;;;10.20;99.90;;;;;;5062264;28;20040;-78
2022/05/28 01:17:41;;;;;;;1999.90;999.90;;;10.20;99.90;;;;;;5060003;28;20043;-80
2022/05/28 01:20:15;;;;;;;1999.90;999.90;;;10.20;99.90;;;;;;5057572;28;20052;-79
2022/05/28 01:23:04;;;;;;;1999.90;999.90;;;10.10;99.90;;;;;;5050609;28;20060;-79
2022/05/28 01:25:47;;;;;;;1999.90;999.90;;;10.10;99.90;;;;;;5040771;28;20051;-79
2022/05/28 01:28:17;;;;;;;1999.90;999.90;;;10.10;99.90;;;;;;5053592;28;20063;-77
2022/05/28 01:30:44;;;;;;;1999.90;999.90;;;10.10;99.90;;;;;;5053998;28;20074;-78
2022/05/28 01:33:12;;;;;;;1999.90;999.90;;;10.00;99.90;;;;;;5044991;28;20045;-77
2022/05/28 01:35:38;;;;;;;1999.90;999.90;;;10.00;99.90;;;;;;5048476;28;20053;-78
2022/05/28 01:38:06;;;;;;;1999.90;999.90;;;10.10;99.90;;;;;;5047717;28;20067;-77
2022/05/28 01:40:33;;;;;;;1999.90;999.90;;;10.10;99.90;;;;;;5051810;28;20095;-77
2022/05/28 01:43:04;;;;;;;1999.90;999.90;;;10.10;99.90;;;;;;5041073;28;20037;-78
2022/05/28 01:45:31;;;;;;;1999.90;999.90;;;10.10;99.90;;;;;;5033285;28;20056;-79
2022/05/28 01:48:01;;;;;;;1999.90;999.90;;;10.00;99.90;;;;;;5038123;28;20115;-79
2022/05/28 01:50:30;;;;;;;1999.90;999.90;;;10.00;99.90;;;;;;5047226;28;20471;-78
2022/05/28 01:52:57;;;;;;;1999.90;999.90;;;9.90;99.90;;;;;;5051178;28;20048;-78
2022/05/28 01:55:25;;;;;;;1999.90;999.90;;;9.90;99.90;;;;;;5045354;28;20529;-79
2022/05/28 01:57:52;;;;;;;1999.90;999.90;;;9.80;99.90;;;;;;5058296;28;20048;-78
2022/05/28 02:00:18;;;;;;;1999.90;999.90;;;9.80;99.90;;;;;;5065002;28;20059;-79
2022/05/28 02:02:43;;;;;;;1999.90;999.90;;;9.70;99.90;;;;;;5061086;28;20033;-79
2022/05/28 02:05:10;;;;;;;1999.90;999.90;;;9.70;99.90;;;;;;5019794;28;20048;-77
2022/05/28 02:07:36;;;;;;;1999.90;999.90;;;9.70;99.90;;;;;;5047159;28;20068;-79
2022/05/28 02:10:09;;;;;;;1999.90;999.90;;;9.60;99.90;;;;;;5059562;28;20036;-78
2022/05/28 02:12:50;;;;;;;1999.90;999.90;;;9.60;99.90;;;;;;5050674;28;20040;-77
2022/05/28 02:16:04;;;;;;;1999.90;999.90;;;9.70;99.90;;;;;;5023343;28;20067;-79
2022/05/28 02:18:39;;;;;;;;;;;9.70;99.90;;;;;;4942383;28;20177;-79
2022/05/28 02:21:13;;;;;;;1999.90;999.90;;;9.70;99.90;;;;;;4953766;28;19922;-78
2022/05/28 02:23:47;;;;;;;1999.90;999.90;;;9.70;99.90;;;;;;4964852;28;20468;-78
2022/05/28 02:26:22;;;;;;;1999.90;999.90;;;9.80;99.90;;;;;;4975060;28;20124;-78
2022/05/28 02:28:48;;;;;;;1999.90;999.90;;;9.80;99.90;;;;;;4973349;28;20157;-80
2022/05/28 02:31:17;;;;;;;1999.90;999.90;;;9.80;99.90;;;;;;4972136;28;20042;-79
2022/05/28 02:33:43;;;;;;;1999.90;999.90;;;9.80;99.90;;;;;;4975795;28;20463;-80
2022/05/28 02:36:12;;;;;;;1999.90;999.90;;;9.90;99.90;;;;;;4963647;28;20057;-79
2022/05/28 02:38:37;;;;;;;1999.90;999.90;;;9.90;99.90;;;;;;4974145;28;20054;-79
2022/05/28 02:41:03;;;;;;;1999.90;999.90;;;9.90;99.90;;;;;;4986938;28;20053;-79
2022/05/28 02:43:31;;;;;;;1999.90;999.90;;;9.90;99.90;;;;;;4973089;28;20065;-79
2022/05/28 02:46:00;;;;;;;1999.90;999.90;;;10.00;99.90;;;;;;4970477;28;20467;-78
2022/05/28 02:48:26;;;;;;;1999.90;999.90;;;10.00;99.90;;;;;;4959384;28;20050;-79
2022/05/28 02:50:52;;;;;;;1999.90;999.90;;;10.00;99.90;;;;;;4957324;28;20455;-78
2022/05/28 02:53:18;;;;;;;1999.90;999.90;;;10.00;99.90;;;;;;4953708;28;20043;-79
2022/05/28 02:55:43;;;;;;;1999.90;999.90;;;10.10;99.90;;;;;;5059074;28;20043;-79
2022/05/28 02:58:09;;;;;;;1999.90;999.90;;;10.10;99.90;;;;;;5051244;28;20044;-80
2022/05/28 03:00:34;;;;;;;1999.90;999.90;;;10.10;99.90;;;;;;5056614;28;20403;-77
2022/05/28 03:03:00;;;;;;;1999.90;999.90;;;10.00;99.90;;;;;;5072232;28;20039;-78
2022/05/28 03:05:26;;;;;;;1999.90;999.90;;;10.00;99.90;;;;;;5054109;28;20390;-79
2022/05/28 03:07:52;;;;;;;1999.90;999.90;;;10.00;99.90;;;;;;5061691;28;20476;-78
2022/05/28 03:10:18;;;;;;;1999.90;999.90;;;10.00;99.90;;;;;;5062870;28;20067;-78
2022/05/28 03:12:44;;;;;;;1999.90;999.90;;;10.10;99.90;;;;;;5079846;28;20043;-78
2022/05/28 03:15:11;;;;;;;1999.90;999.90;;;10.10;99.90;;;;;;5067995;28;20051;-78
2022/05/28 03:17:38;;;;;;;1999.90;999.90;;;10.10;99.90;;;;;;5061104;28;20506;-79
2022/05/28 03:20:05;;;;;;;1999.90;999.90;;;10.20;99.90;;;;;;5057186;28;20041;-78
2022/05/28 03:22:31;;;;;;;1999.90;999.90;;;10.20;99.90;;;;;;5075712;28;20486;-79
2022/05/28 03:24:57;;;;;;;1999.90;999.90;;;10.20;99.90;;;;;;5051749;28;20105;-78
2022/05/28 03:27:23;;;;;;;1999.90;999.90;;;10.20;99.90;;;;;;5053996;28;20062;-78
2022/05/28 03:29:49;;;;;;;1999.90;999.90;;;10.20;99.90;;;;;;5055540;28;20044;-79
2022/05/28 03:32:14;;;;;;;1999.90;999.90;;;10.10;99.90;;;;;;5059697;28;20146;-79
2022/05/28 03:34:40;;;;;;;1999.90;999.90;;;10.10;99.90;;;;;;5057366;28;20039;-79
2022/05/28 03:37:06;;;;;;;1999.90;999.90;;;10.10;99.90;;;;;;5080675;28;20455;-79
2022/05/28 03:39:31;;;;;;;1999.90;999.90;;;10.10;99.90;;;;;;5056534;28;20442;-78
2022/05/28 03:41:57;;;;;;;1999.90;999.90;;;10.10;99.90;;;;;;5055950;28;20043;-78
2022/05/28 03:44:22;;;;;;;1999.90;999.90;;;10.00;99.90;;;;;;5057081;28;20044;-78
2022/05/28 03:46:48;;;;;;;1999.90;999.90;;;10.00;99.90;;;;;;5052205;28;20044;-79
2022/05/28 03:49:22;;;;;;;1999.90;999.90;;;10.10;99.90;;;;;;5074582;28;20029;-77
2022/05/28 03:51:48;;;;;;;1999.90;999.90;;;10.20;99.90;;;;;;5055574;28;20437;-78
2022/05/28 03:54:14;;;;;;;1999.90;999.90;;;10.30;99.90;;;;;;5068288;28;20051;-78
2022/05/28 03:56:42;;;;;;;1999.90;999.90;;;10.40;99.90;;;;;;5061971;28;20413;-78
2022/05/28 03:59:09;;;;;;;1999.90;999.90;;;10.40;99.90;;;;;;5057297;28;20048;-78
2022/05/28 04:01:35;;;;;;;1999.90;999.90;;;10.40;99.90;;;;;;5065187;28;20058;-79
2022/05/28 04:04:01;;;;;;;1999.90;999.90;;;10.40;99.90;;;;;;5075807;28;20041;-80
2022/05/28 04:06:27;;;;;;;1999.90;999.90;;;10.30;99.90;;;;;;5073339;28;20035;-78
2022/05/28 04:08:52;;;;;;;1999.90;999.90;;;10.30;99.90;;;;;;5071696;28;20398;-79
2022/05/28 04:11:18;;;;;;;1999.90;999.90;;;10.30;99.90;;;;;;5065331;28;20051;-80
2022/05/28 04:13:44;;;;;;;1999.90;999.90;;;10.30;99.90;;;;;;5066055;28;20544;-80
2022/05/28 04:16:11;;;;;;;1999.90;999.90;;;10.30;99.90;;;;;;5053099;28;20085;-77
2022/05/28 04:18:37;;;;;;;1999.90;999.90;;;10.30;99.90;;;;;;5065298;28;20075;-78
2022/05/28 04:21:03;;;;;;;1999.90;999.90;;;10.30;99.90;;;;;;5082225;28;20148;-78
2022/05/28 04:23:28;;;;;;;1999.90;999.90;;;10.40;99.90;;;;;;5059323;28;20051;-77
2022/05/28 04:25:54;;;;;;;1999.90;999.90;;;10.40;99.90;;;;;;5070517;28;20044;-77
2022/05/28 04:28:20;;;;;;;1999.90;999.90;;;10.50;99.90;;;;;;5063066;28;20100;-78
2022/05/28 04:30:46;;;;;;;1999.90;999.90;;;10.50;99.90;;;;;;5085230;28;20118;-78
2022/05/28 04:33:11;;;;;;;1999.90;999.90;;;10.50;99.90;;;;;;5054482;28;20047;-78
2022/05/28 04:35:37;;;;;;;1999.90;999.90;;;10.50;99.90;;;;;;5075211;28;20056;-78
2022/05/28 04:38:03;;;;;;;1999.90;999.90;;;10.50;99.90;;;;;;5074549;28;20123;-80
2022/05/28 04:40:28;;;;;;;1999.90;999.90;;;10.60;99.90;;;;;;5074343;28;20082;-79
2022/05/28 04:42:54;;;;;;;1999.90;999.90;;;10.60;99.90;;;;;;5081711;28;20043;-78
2022/05/28 04:45:19;;;;;;;1999.90;999.90;;;10.70;99.90;;;;;;5054464;28;20439;-78
2022/05/28 04:47:45;;;;;;;1999.90;999.90;;;10.70;99.90;;;;;;5056986;28;20035;-79
2022/05/28 04:50:11;;;;;;;1999.90;999.90;;;10.80;99.90;;;;;;5079051;28;20039;-78
2022/05/28 04:52:38;;;;;;;1999.90;999.90;;;10.80;99.90;;;;;;5052439;28;20052;-78
2022/05/28 04:55:06;;;;;;;1999.90;999.90;;;10.80;99.90;;;;;;5084568;28;20061;-78
2022/05/28 04:57:31;;;;;;;1999.90;999.90;;;10.90;99.90;;;;;;5076642;28;20404;-79
2022/05/28 04:59:57;;;;;;;1999.90;999.90;;;10.90;99.90;;;;;;5072616;28;20040;-78
2022/05/28 05:02:23;;;;;;;1999.90;999.90;;;10.90;99.90;;;;;;5072217;28;20051;-78
2022/05/28 05:04:54;;;;;;;1999.90;999.90;;;11.00;99.90;;;;;;5066057;28;20135;-78
2022/05/28 05:07:20;;;;;;;1999.90;999.90;;;10.90;99.90;;;;;;5077854;28;20036;-79
2022/05/28 05:09:45;;;;;;;1999.90;999.90;;;10.90;99.90;;;;;;5069991;28;20047;-79
2022/05/28 05:12:11;;;;;;;1999.90;999.90;;;10.80;99.90;;;;;;5072886;28;20151;-79
2022/05/28 05:14:36;;;;;;;1999.90;999.90;;;10.90;99.90;;;;;;5060962;28;20059;-79
2022/05/28 05:17:02;;;;;;;1999.90;999.90;;;10.90;99.90;;;;;;5056188;28;20100;-79
2022/05/28 05:19:27;;;;;;;1999.90;999.90;;;11.00;99.90;;;;;;5058267;28;20043;-78
2022/05/28 05:21:55;;;;;;;1999.90;999.90;;;11.00;99.90;;;;;;5062750;28;20036;-79
2022/05/28 05:24:22;;;;;;;1999.90;999.90;;;11.00;99.90;;;;;;5081172;28;20126;-78
2022/05/28 05:26:48;;;;;;;1999.90;999.90;;;11.00;99.90;;;;;;5070618;28;20044;-79
2022/05/28 05:29:14;;;;;;;1999.90;999.90;;;11.00;99.90;;;;;;5078271;28;20067;-78
2022/05/28 05:31:40;;;;;;;1999.90;999.90;;;11.00;99.90;;;;;;5070036;28;20047;-79
2022/05/28 05:34:06;;;;;;;1999.90;999.90;;;11.10;99.90;;;;;;5055719;28;20036;-79
2022/05/28 05:36:33;;;;;;;1999.90;999.90;;;11.20;99.90;;;;;;5060107;28;20086;-80
2022/05/28 05:38:59;;;;;;;1999.90;999.90;;;11.20;99.90;;;;;;5048868;28;20040;-79
2022/05/28 05:41:25;;;;;;;1999.90;999.90;;;11.30;99.90;;;;;;5082455;28;20048;-76
2022/05/28 05:43:51;;;;;;;1999.90;999.90;;;11.30;99.90;;;;;;5057944;28;20682;-76
2022/05/28 05:46:17;;;;;;;1999.90;999.90;;;11.30;99.90;;;;;;5069929;28;20056;-75
2022/05/28 05:48:43;;;;;;;1999.90;999.90;;;11.30;99.90;;;;;;5059128;28;20549;-77
2022/05/28 05:51:14;;;;;;;1999.90;999.90;;;11.40;99.90;;;;;;5061494;28;20036;-76
2022/05/28 05:53:40;;;;;;;1999.90;999.90;;;11.50;99.90;;;;;;5069542;28;20036;-77
2022/05/28 05:56:06;;;;;;;1999.90;999.90;;;11.70;99.90;;;;;;5052116;28;20067;-76
2022/05/28 05:58:34;;;;;;;1999.90;999.90;;;11.80;99.90;;;;;;5076924;28;20520;-76
2022/05/28 06:01:01;;;;;;;1999.90;999.90;;;11.90;99.90;;;;;;5068856;28;20114;-77
2022/05/28 06:03:28;;;;;;;1999.90;999.90;;;12.30;99.90;;;;;;5055606;28;20048;-77
2022/05/28 06:06:02;;;;;;;1999.90;999.90;;;12.80;99.90;;;;;;5056509;28;20043;-76
2022/05/28 06:08:28;;;;;;;1999.90;999.90;;;12.90;99.90;;;;;;5058169;28;20484;-77
2022/05/28 06:10:54;;;;;;;1999.90;999.90;;;12.80;99.90;;;;;;5090173;28;20118;-79
2022/05/28 06:13:20;;;;;;;1999.90;999.90;;;12.60;99.90;;;;;;5050184;28;20147;-78
2022/05/28 06:15:46;;;;;;;1999.90;999.90;;;12.60;99.90;;;;;;5066415;28;20040;-78
2022/05/28 06:18:16;;;;;;;1999.90;999.90;;;12.60;99.90;;;;;;5071105;28;20036;-76
2022/05/28 06:20:41;;;;;;;1999.90;999.90;;;12.50;99.90;;;;;;5068882;28;20047;-76
2022/05/28 06:23:07;;;;;;;1999.90;999.90;;;12.50;99.90;;;;;;5033641;28;1056451;-78
2022/05/28 06:25:33;;;;;;;1999.90;999.90;;;12.40;99.90;;;;;;5086283;28;20035;-78
2022/05/28 06:27:59;;;;;;;1999.90;999.90;;;12.30;99.90;;;;;;5066910;28;20036;-77
2022/05/28 06:30:25;;;;;;;1999.90;999.90;;;12.10;99.90;;;;;;5063310;28;20024;-78
2022/05/28 06:32:50;;;;;;;1999.90;999.90;;;11.90;99.90;;;;;;5095213;28;20040;-78
2022/05/28 06:35:17;;;;;;;1999.90;999.90;;;11.70;99.90;;;;;;5076942;28;20143;-77
2022/05/28 06:37:43;;;;;;;1999.90;999.90;;;11.40;99.90;;;;;;5063728;28;20040;-78
2022/05/28 06:40:09;;;;;;;1999.90;999.90;;;11.30;99.90;;;;;;5074207;28;20387;-77
2022/05/28 06:42:35;;;;;;;1999.90;999.90;;;11.50;99.90;;;;;;5066246;28;20052;-76
2022/05/28 06:45:00;;;;;;;1999.90;999.90;;;12.30;99.90;;;;;;5079493;28;20042;-78
2022/05/28 06:47:27;;;;;;;1999.90;999.90;;;12.50;99.90;;;;;;5068706;28;20048;-77
2022/05/28 06:52:37;;;;;;;1999.90;999.90;;;12.10;99.90;;;;;;5062351;28;20503;-77
2022/05/28 06:55:04;;;;;;;1999.90;999.90;;;11.80;99.90;;;;;;5059752;28;20126;-77
2022/05/28 06:57:30;;;;;;;1999.90;999.90;;;11.70;99.90;;;;;;5074628;28;20043;-77
2022/05/28 06:59:58;;;;;;;1999.90;999.90;;;11.60;99.90;;;;;;5044980;28;20049;-76
2022/05/28 07:02:23;;;;;;;1999.90;999.90;;;11.40;99.90;;;;;;5054782;28;20437;-77
2022/05/28 07:04:49;;;;;;;1999.90;999.90;;;11.30;99.90;;;;;;5071943;28;20062;-76
2022/05/28 07:07:15;;;;;;;1999.90;999.90;;;11.10;99.90;;;;;;5057899;28;20115;-77
2022/05/28 07:09:40;;;;;;;1999.90;999.90;;;10.90;99.90;;;;;;5063322;28;20032;-77
2022/05/28 07:12:06;;;;;;;1999.90;999.90;;;10.80;99.90;;;;;;5071446;28;20044;-77
2022/05/28 07:14:32;;;;;;;1999.90;999.90;;;10.80;99.90;;;;;;5057940;28;20046;-76
2022/05/28 07:16:57;;;;;;;1999.90;999.90;;;10.80;99.90;;;;;;5053508;28;20040;-77
2022/05/28 07:19:23;;;;;;;1999.90;999.90;;;10.90;99.90;;;;;;5074961;28;20044;-78
2022/05/28 07:21:49;;;;;;;1999.90;999.90;;;11.20;99.90;;;;;;5060046;28;20508;-77
2022/05/28 07:24:14;;;;;;;1999.90;999.90;;;11.80;99.90;;;;;;5067598;28;20087;-78
2022/05/28 07:26:40;;;;;;;1999.90;999.90;;;11.90;99.90;;;;;;5047440;28;20043;-77
2022/05/28 07:29:08;;;;;;;1999.90;999.90;;;11.90;99.90;;;;;;5075118;28;20040;-78
2022/05/28 07:31:35;;;;;;;1999.90;999.90;;;11.90;99.90;;;;;;5066859;28;20032;-77
2022/05/28 07:34:00;;;;;;;1999.90;999.90;;;11.90;99.90;;;;;;5068452;28;20046;-78
2022/05/28 07:36:26;;;;;;;1999.90;999.90;;;12.10;99.90;;;;;;5067474;28;20043;-78
2022/05/28 07:38:52;;;;;;;1999.90;999.90;;;12.60;99.90;;;;;;5061871;28;20040;-77
2022/05/28 07:41:21;;;;;;;1999.90;999.90;;;12.60;99.90;;;;;;5073902;28;20092;-78
2022/05/28 07:43:48;;;;;;;1999.90;999.90;;;12.90;99.90;;;;;;5070876;28;20047;-78
2022/05/28 07:46:23;;;;;;;1999.90;999.90;;;13.90;99.90;;;;;;5059716;28;20083;-79
2022/05/28 07:48:49;;;;;;;1999.90;999.90;;;14.10;99.90;;;;;;5065962;28;20130;-77
2022/05/28 07:51:15;;;;;;;1999.90;999.90;;;13.80;99.90;;;;;;5054186;28;20056;-79
2022/05/28 07:53:41;;;;;;;1999.90;999.90;;;13.40;99.90;;;;;;5065264;28;20509;-78
2022/05/28 07:56:07;;;;;;;1999.90;999.90;;;13.20;99.90;;;;;;5067858;28;20395;-78
2022/05/28 07:58:33;;;;;;;1999.90;999.90;;;13.20;99.90;;;;;;5070457;28;20042;-78
2022/05/28 08:00:59;;;;;;;1999.90;999.90;;;13.50;99.90;;;;;;5065315;28;20047;-77
2022/05/28 08:03:25;;;;;;;1999.90;999.90;;;13.90;99.90;;;;;;5074571;28;20085;-78
2022/05/28 08:05:53;;;;;;;1999.90;999.90;;;13.80;99.90;;;;;;5066058;28;20048;-77
2022/05/28 08:08:20;;;;;;;1999.90;999.90;;;13.60;99.90;;;;;;5061725;28;20036;-78
2022/05/28 08:10:48;;;;;;;1999.90;999.90;;;13.30;99.90;;;;;;5069556;28;20076;-79
2022/05/28 08:13:16;;;;;;;1999.90;999.90;;;13.00;99.90;;;;;;5063146;28;20035;-78
2022/05/28 08:15:44;;;;;;;1999.90;999.90;;;12.70;99.90;;;;;;5071833;28;20092;-77
2022/05/28 08:18:10;;;;;;;1999.90;999.90;;;12.60;99.90;;;;;;5071497;28;20047;-77
2022/05/28 08:23:20;;;;;;;1999.90;999.90;;;12.50;99.90;;;;;;5066683;28;20052;-78
2022/05/28 08:25:47;;;;;;;1999.90;999.90;;;12.70;99.90;;;;;;5064779;28;20332;-78
2022/05/28 08:28:14;;;;;;;1999.90;999.90;;;13.00;99.90;;;;;;5082297;28;20054;-77
2022/05/28 08:30:40;;;;;;;1999.90;999.90;;;13.20;99.90;;;;;;5046838;28;20036;-76
2022/05/28 08:33:08;;;;;;;1999.90;999.90;;;13.10;99.90;;;;;;5068287;28;20116;-77
2022/05/28 08:35:35;;;;;;;1999.90;999.90;;;13.10;99.90;;;;;;5069879;28;20046;-77
2022/05/28 08:38:11;;;;;;;1999.90;999.90;;;14.00;99.90;;;;;;5069369;28;20052;-78
2022/05/28 08:40:46;;;;;;;1999.90;999.90;;;14.80;99.90;;;;;;5044855;28;20044;-79
2022/05/28 08:43:14;;;;;;;1999.90;999.90;;;14.90;99.90;;;;;;5049939;28;20122;-79
2022/05/28 08:45:42;;;;;;;1999.90;999.90;;;14.70;99.90;;;;;;5071048;28;20039;-77
2022/05/28 08:48:07;;;;;;;1999.90;999.90;;;15.30;99.90;;;;;;5068137;28;20122;-78
2022/05/28 08:51:06;;;;;;;1999.90;999.90;;;15.90;99.90;;;;;;5064996;28;20142;-79
2022/05/28 08:53:43;;;;;;;1999.90;999.90;;;16.40;99.90;;;;;;5029154;28;20063;-78
2022/05/28 08:56:18;;;;;;;1999.90;999.90;;;16.10;99.90;;;;;;5075612;28;20505;-78
2022/05/28 08:58:48;;;;;;;1999.90;999.90;;;15.40;99.90;;;;;;5063823;28;20490;-79
2022/05/28 09:01:19;;;;;;;1999.90;999.90;;;14.70;99.90;;;;;;5067598;28;20505;-79
2022/05/28 09:03:59;;;;;;;1999.90;999.90;;;14.80;99.90;;;;;;5073142;28;20539;-76
2022/05/28 09:06:43;;;;;;;1999.90;999.90;;;15.60;99.90;;;;;;5069523;28;20521;-78
2022/05/28 09:09:12;;;;;;;1999.90;999.90;;;16.00;99.90;;;;;;5064789;28;20039;-79
2022/05/28 09:11:50;;;;;;;1999.90;999.90;;;15.60;99.90;;;;;;5062164;28;20118;-79
2022/05/28 09:14:18;;;;;;;1999.90;999.90;;;15.20;99.90;;;;;;5053763;28;20052;-78
2022/05/28 09:16:47;;;;;;;1999.90;999.90;;;14.80;99.90;;;;;;5072721;28;20496;-76
2022/05/28 09:19:22;;;;;;;1999.90;999.90;;;14.50;99.90;;;;;;5056973;28;20052;-78
2022/05/28 09:21:49;;;;;;;1999.90;999.90;;;14.20;99.90;;;;;;5054299;28;20577;-78
2022/05/28 09:24:27;;;;;;;1999.90;999.90;;;14.00;99.90;;;;;;5073903;28;20082;-78
2022/05/28 09:27:05;;;;;;;1999.90;999.90;;;13.70;99.90;;;;;;5054762;28;20400;-79
2022/05/28 09:30:12;;;;;;;1999.90;999.90;;;13.50;99.90;;;;;;5036991;28;20044;-77
2022/05/28 09:33:06;;;;;;;1999.90;999.90;;;13.40;99.90;;;;;;5071606;28;20104;-79
2022/05/28 09:35:43;;;;;;;1999.90;999.90;;;13.50;99.90;;;;;;5070117;28;20051;-78
2022/05/28 09:38:35;;;;;;;1999.90;999.90;;;14.30;99.90;;;;;;5053208;28;20044;-78
2022/05/28 09:41:14;;;;;;;1999.90;999.90;;;15.00;99.90;;;;;;5067927;28;20476;-79
2022/05/28 09:44:00;;;;;;;1999.90;999.90;;;15.00;99.90;;;;;;5053456;28;20382;-78
2022/05/28 09:46:39;;;;;;;1999.90;999.90;;;14.80;99.90;;;;;;5060964;28;20040;-78
2022/05/28 09:49:13;;;;;;;1999.90;999.90;;;14.60;99.90;;;;;;5062682;28;20044;-77
2022/05/28 09:51:49;;;;;;;1999.90;999.90;;;14.10;99.90;;;;;;5061382;28;20113;-77
2022/05/28 09:54:23;;;;;;;1999.90;999.90;;;13.80;99.90;;;;;;5057835;28;20047;-78
2022/05/28 09:56:55;;;;;;;1999.90;999.90;;;13.50;99.90;;;;;;5075373;28;20054;-78
2022/05/28 10:00:03;;;;;;;1999.90;999.90;;;13.30;99.90;;;;;;5058486;28;20397;-77
2022/05/28 10:02:33;;;;;;;1999.90;999.90;;;13.20;99.90;;;;;;5063343;28;20587;-77
2022/05/28 10:05:13;;;;;;;1999.90;999.90;;;13.10;99.90;;;;;;5048890;28;20401;-78
2022/05/28 10:07:51;;;;;;;1999.90;999.90;;;13.20;99.90;;;;;;5050157;28;20046;-78
2022/05/28 10:10:27;;;;;;;1999.90;999.90;;;13.30;99.90;;;;;;5069611;28;20120;-78
2022/05/28 10:13:12;;;;;;;1999.90;999.90;;;13.90;99.90;;;;;;5054963;28;20087;-78
2022/05/28 10:15:41;;;;;;;1999.90;999.90;;;14.40;99.90;;;;;;5048882;28;20578;-78
2022/05/28 10:18:18;;;;;;;1999.90;999.90;;;14.90;99.90;;;;;;5070880;28;20120;-78
2022/05/28 10:20:56;;;;;;;1999.90;999.90;;;15.20;99.90;;;;;;5071074;28;20451;-78
2022/05/28 10:23:23;;;;;;;1999.90;999.90;;;15.60;99.90;;;;;;5047928;28;20080;-77
2022/05/28 10:25:50;;;;;;;1999.90;999.90;;;15.70;99.90;;;;;;5069649;28;20113;-78
2022/05/28 10:28:50;;;;;;;1999.90;999.90;;;15.60;99.90;;;;;;5066701;28;20115;-78
2022/05/28 10:31:28;;;;;;;1999.90;999.90;;;15.50;99.60;;;;;;5054240;28;20063;-77
2022/05/28 10:33:53;;;;;;;1999.90;999.90;;;15.10;99.90;;;;;;5068672;28;20044;-77
2022/05/28 10:36:25;;;;;;;1999.90;999.90;;;15.40;99.90;;;;;;5055192;28;20046;-78
2022/05/28 10:38:50;;;;;;;1999.90;999.90;;;15.90;99.90;;;;;;5062234;28;20516;-77
2022/05/28 10:41:22;;;;;;;1999.90;999.90;;;16.20;99.50;;;;;;5051765;28;20824;-78
2022/05/28 10:43:49;;;;;;;1999.90;999.90;;;16.10;98.50;;;;;;5069245;28;20531;-78
2022/05/28 10:46:36;;;;;;;1999.90;999.90;;;15.70;97.20;;;;;;5053724;28;20085;-77
2022/05/28 10:49:16;;;;;;;1999.90;999.90;;;15.70;98.00;;;;;;5067446;28;20127;-78
2022/05/28 10:52:12;;;;;;;1999.90;999.90;;;15.70;97.30;;;;;;5055162;28;20044;-77
2022/05/28 10:55:09;;;;;;;1999.90;999.90;;;15.90;98.30;;;;;;5059784;28;20127;-77
2022/05/28 10:58:13;;;;;;;1999.90;999.90;;;16.30;97.90;;;;;;5062741;28;20057;-77
2022/05/28 11:01:04;;;;;;;1999.90;999.90;;;16.70;96.50;;;;;;5070951;28;20405;-77
2022/05/28 11:04:13;;;;;;;1999.90;999.90;;;16.50;95.10;;;;;;5055164;28;20108;-77
2022/05/28 11:06:54;;;;;;;1999.90;999.90;;;15.90;94.80;;;;;;5064974;28;20040;-78
2022/05/28 11:09:56;;;;;;;1999.90;999.90;;;15.20;95.60;;;;;;5069900;28;20085;-76
2022/05/28 11:12:49;;;;;;;1999.90;999.90;;;14.70;96.90;;;;;;5048974;28;20544;-77
2022/05/28 11:15:36;;;;;;;1999.90;999.90;;;14.50;98.30;;;;;;5052745;28;20040;-77
2022/05/28 11:18:17;;;;;;;1999.90;999.90;;;14.80;99.80;;;;;;5057009;28;20522;-78
2022/05/28 11:21:11;;;;;;;1999.90;999.90;;;15.20;99.90;;;;;;5070257;28;20036;-76
2022/05/28 11:23:49;;;;;;;1999.90;999.90;;;16.00;99.90;;;;;;5049661;28;20106;-77
2022/05/28 11:26:34;;;;;;;1999.90;999.90;;;16.50;99.80;;;;;;5044158;28;20047;-77
2022/05/28 11:29:26;;;;;;;1999.90;999.90;;;16.50;98.90;;;;;;5075397;28;20093;-76
2022/05/28 11:32:01;;;;;;;1999.90;999.90;;;16.10;96.60;;;;;;5086013;28;20047;-77
2022/05/28 11:34:40;;;;;;;1999.90;999.90;;;15.40;97.60;;;;;;5063704;28;20040;-77
2022/05/28 11:37:17;;;;;;;1999.90;999.90;;;14.70;99.90;;;;;;5055461;28;20040;-78
2022/05/28 11:39:50;;;;;;;1999.90;999.90;;;14.10;99.90;;;;;;5050650;28;20063;-77
2022/05/28 11:42:41;;;;;;;1999.90;999.90;;;13.60;99.90;;;;;;5039860;28;20043;-78
2022/05/28 11:45:13;;;;;;;1999.90;999.90;;;13.50;99.90;;;;;;5078160;28;20048;-78
2022/05/28 11:47:52;;;;;;;1999.90;999.90;;;13.60;99.90;;;;;;5063927;28;20032;-76
2022/05/28 11:53:22;;;;;;;1999.90;999.90;;;13.90;99.90;;;;;;5059117;28;20056;-78
2022/05/28 11:55:54;;;;;;;1999.90;999.90;;;14.30;99.90;;;;;;5076440;28;20501;-78
2022/05/28 11:58:35;;;;;;;1999.90;999.90;;;15.00;99.90;;;;;;5070792;28;20845;-77
2022/05/28 12:01:06;;;;;;;1999.90;999.90;;;15.20;99.90;;;;;;5044485;28;20413;-78
2022/05/28 12:03:32;;;;;;;1999.90;999.90;;;15.20;99.90;;;;;;5057755;28;20560;-77
2022/05/28 12:06:04;;;;;;;1999.90;999.90;;;15.20;99.90;;;;;;5043713;28;20044;-77
2022/05/28 12:08:55;;;;;;;1999.90;999.90;;;15.50;99.90;;;;;;5050155;28;20044;-76
2022/05/28 12:11:23;;;;;;;1999.90;999.90;;;15.60;99.20;;;;;;5047544;28;20072;-77
2022/05/28 12:14:02;;;;;;;1999.90;999.90;;;15.30;99.10;;;;;;5050567;28;20443;-77
2022/05/28 12:16:35;;;;;;;1999.90;999.90;;;15.20;99.80;;;;;;5063450;28;20062;-78
2022/05/28 12:19:07;;;;;;;1999.90;999.90;;;14.90;99.10;;;;;;5053428;28;20040;-76
2022/05/28 12:21:36;;;;;;;1999.90;999.90;;;14.70;99.90;;;;;;5082585;28;20047;-78
2022/05/28 12:24:05;;;;;;;1999.90;999.90;;;14.50;99.90;;;;;;5045934;28;20048;-76
2022/05/28 12:29:37;;;;;;;1999.90;999.90;;;14.20;99.90;;;;;;5051041;28;20079;-76
2022/05/28 12:32:12;;;;;;;1999.90;999.90;;;14.40;99.90;;;;;;5060475;28;20458;-77